Time;durP1;ratioP1;P1;durP2;ratioP2;P2;SDS_P1;SDS_P2;PMS_P1;PMS_P2;Temp;Humidity;BMP_temperature;BMP_pressure;BME280_temperature;BME280_humidity;BME280_pressure;Samples;Min_cycle;Max_cycle;Signal;HPM_P1;HPM_P2
2022/07/20 00:01:13;;;;;;;5.82;5.00;;;;;;;;;;5051686;28;20443;-80
2022/07/20 00:03:41;;;;;;;5.97;5.10;;;;;;;;;;5051479;28;20425;-80
2022/07/20 00:06:07;;;;;;;6.32;4.95;;;;;;;;;;5051326;28;20417;-80
2022/07/20 00:11:21;;;;;;;5.32;4.82;;;;;;;;;;5051489;28;20373;-80
2022/07/20 00:13:52;;;;;;;6.57;5.10;;;;;;;;;;5051573;28;20380;-80
2022/07/20 00:16:18;;;;;;;5.30;4.80;;;;;;;;;;5034482;28;20387;-80
2022/07/20 00:18:44;;;;;;;5.65;4.63;;;;;;;;;;5053196;28;20822;-80
2022/07/20 00:21:12;;;;;;;5.72;5.00;;;;;;;;;;5055308;28;20392;-80
2022/07/20 00:23:38;;;;;;;5.55;5.00;;;;;;;;;;5055214;28;20396;-80
2022/07/20 00:26:04;;;;;;;5.27;4.77;;;;;;;;;;5055025;28;20405;-80
2022/07/20 00:28:30;;;;;;;6.45;4.97;;;;;;;;;;5055078;28;20377;-80
2022/07/20 00:30:56;;;;;;;5.85;5.00;;;;;;;;;;5055139;28;20927;-80
2022/07/20 00:33:22;;;;;;;6.85;5.03;;;;;;;;;;5054968;28;20373;-80
2022/07/20 00:35:48;;;;;;;5.95;4.63;;;;;;;;;;5054946;28;20484;-80
2022/07/20 00:38:14;;;;;;;5.80;4.22;;;;;;;;;;5055028;28;20388;-80
2022/07/20 00:40:41;;;;;;;6.40;4.88;;;;;;;;;;5054943;28;20377;-80
2022/07/20 00:43:07;;;;;;;5.18;4.68;;;;;;;;;;5054852;28;20388;-80
2022/07/20 00:45:33;;;;;;;6.63;4.90;;;;;;;;;;5045893;28;20405;-80
2022/07/20 00:47:59;;;;;;;6.15;4.55;;;;;;;;;;5054773;28;20381;-80
2022/07/20 00:50:25;;;;;;;5.30;4.80;;;;;;;;;;5054621;28;20377;-80
2022/07/20 00:52:51;;;;;;;4.68;4.28;;;;;;;;;;5054450;28;20377;-80
2022/07/20 00:55:18;;;;;;;4.73;4.23;;;;;;;;;;5054712;28;20435;-80
2022/07/20 00:57:44;;;;;;;5.65;4.78;;;;;;;;;;5053892;28;20393;-80
2022/07/20 01:00:10;;;;;;;5.50;4.43;;;;;;;;;;5052149;28;20381;-80
2022/07/20 01:02:36;;;;;;;4.97;4.47;;;;;;;;;;5054458;28;20393;-80
2022/07/20 01:05:03;;;;;;;5.18;4.72;;;;;;;;;;5054370;28;20499;-80
2022/07/20 01:07:29;;;;;;;5.40;4.57;;;;;;;;;;5054360;28;20382;-80
2022/07/20 01:09:55;;;;;;;5.93;4.68;;;;;;;;;;5054306;28;20393;-80
2022/07/20 01:12:21;;;;;;;5.20;4.47;;;;;;;;;;5054336;28;20404;-80
2022/07/20 01:14:53;;;;;;;7.97;5.05;;;;;;;;;;5054469;28;20385;-80
2022/07/20 01:17:19;;;;;;;6.22;4.57;;;;;;;;;;5054234;28;20388;-80
2022/07/20 01:19:45;;;;;;;5.68;4.55;;;;;;;;;;5054244;28;20390;-80
2022/07/20 01:22:11;;;;;;;5.00;4.50;;;;;;;;;;5054137;28;20439;-80
2022/07/20 01:24:37;;;;;;;5.47;4.78;;;;;;;;;;5054115;28;20412;-80
2022/07/20 01:27:05;;;;;;;6.97;4.93;;;;;;;;;;5039917;28;20370;-80
2022/07/20 01:29:31;;;;;;;5.68;4.72;;;;;;;;;;5053719;28;20829;-80
2022/07/20 01:31:57;;;;;;;5.18;4.53;;;;;;;;;;5053878;28;20397;-80
2022/07/20 01:34:23;;;;;;;5.00;4.60;;;;;;;;;;5053961;28;20394;-80
2022/07/20 01:36:49;;;;;;;5.03;4.53;;;;;;;;;;5053542;28;20385;-80
2022/07/20 01:39:15;;;;;;;6.15;4.57;;;;;;;;;;5054343;28;20444;-80
2022/07/20 01:41:41;;;;;;;5.20;4.70;;;;;;;;;;5053814;28;20444;-80
2022/07/20 01:44:07;;;;;;;5.47;4.85;;;;;;;;;;5053650;28;20385;-80
2022/07/20 01:46:33;;;;;;;5.97;4.70;;;;;;;;;;5044902;28;20797;-80
2022/07/20 01:48:59;;;;;;;5.75;4.65;;;;;;;;;;5053613;28;20394;-80
2022/07/20 01:51:25;;;;;;;6.82;4.63;;;;;;;;;;5046709;28;20405;-81
2022/07/20 01:53:51;;;;;;;5.10;4.50;;;;;;;;;;5051167;28;20374;-80
2022/07/20 01:56:17;;;;;;;5.25;4.75;;;;;;;;;;5051985;28;20468;-80
2022/07/20 01:58:43;;;;;;;5.27;4.87;;;;;;;;;;5051729;28;20838;-80
2022/07/20 02:01:09;;;;;;;7.67;4.70;;;;;;;;;;5053059;28;20380;-80
2022/07/20 02:03:35;;;;;;;5.03;4.63;;;;;;;;;;5053287;28;20393;-80
2022/07/20 02:06:01;;;;;;;5.28;4.82;;;;;;;;;;5052362;28;20459;-80
2022/07/20 02:08:28;;;;;;;5.70;4.88;;;;;;;;;;5053249;28;20847;-80
2022/07/20 02:10:54;;;;;;;5.47;4.97;;;;;;;;;;5053238;28;20373;-80
2022/07/20 02:13:20;;;;;;;5.07;4.68;;;;;;;;;;5053131;28;20388;-80
2022/07/20 02:18:31;;;;;;;6.60;5.00;;;;;;;;;;5053132;28;20412;-80
2022/07/20 02:20:57;;;;;;;6.10;4.60;;;;;;;;;;5049642;28;20792;-80
2022/07/20 02:23:23;;;;;;;5.95;5.00;;;;;;;;;;5052919;28;20381;-80
2022/07/20 02:25:49;;;;;;;7.72;5.20;;;;;;;;;;5053037;28;20410;-80
2022/07/20 02:28:15;;;;;;;7.10;5.10;;;;;;;;;;5052917;28;20758;-80
2022/07/20 02:30:41;;;;;;;6.00;4.90;;;;;;;;;;5052869;28;20370;-80
2022/07/20 02:33:07;;;;;;;6.20;5.22;;;;;;;;;;5052866;28;20373;-80
2022/07/20 02:35:33;;;;;;;5.68;5.07;;;;;;;;;;5052789;28;20789;-80
2022/07/20 02:37:59;;;;;;;6.18;4.97;;;;;;;;;;5052747;28;20381;-80
2022/07/20 02:40:25;;;;;;;7.00;5.50;;;;;;;;;;5052647;28;20397;-80
2022/07/20 02:42:51;;;;;;;5.55;4.97;;;;;;;;;;5052109;28;20455;-80
2022/07/20 02:45:17;;;;;;;5.85;5.25;;;;;;;;;;5043766;28;20403;-80
2022/07/20 02:47:46;;;;;;;6.80;4.90;;;;;;;;;;5052504;28;20377;-80
2022/07/20 02:50:13;;;;;;;5.35;4.88;;;;;;;;;;5052617;28;20472;-80
2022/07/20 02:52:39;;;;;;;6.22;5.43;;;;;;;;;;5049035;28;20370;-80
2022/07/20 02:55:06;;;;;;;6.05;5.25;;;;;;;;;;5052410;28;20421;-80
2022/07/20 02:57:32;;;;;;;11.93;5.40;;;;;;;;;;5052447;28;20785;-80
2022/07/20 02:59:58;;;;;;;5.60;5.10;;;;;;;;;;5051985;28;20391;-80
2022/07/20 03:02:24;;;;;;;7.03;5.30;;;;;;;;;;5052157;28;20429;-80
2022/07/20 03:04:50;;;;;;;7.47;5.22;;;;;;;;;;5052213;28;20782;-80
2022/07/20 03:07:16;;;;;;;6.18;5.55;;;;;;;;;;5052246;28;20854;-80
2022/07/20 03:09:43;;;;;;;6.45;4.85;;;;;;;;;;5052175;28;20389;-80
2022/07/20 03:12:09;;;;;;;5.75;4.90;;;;;;;;;;5052202;28;20849;-80
2022/07/20 03:14:35;;;;;;;7.43;5.05;;;;;;;;;;5052143;28;20701;-80
2022/07/20 03:17:01;;;;;;;6.45;5.25;;;;;;;;;;5052062;28;20380;-80
2022/07/20 03:19:27;;;;;;;6.53;5.35;;;;;;;;;;5052095;28;20389;-80
2022/07/20 03:21:53;;;;;;;6.25;5.10;;;;;;;;;;5051992;28;20373;-80
2022/07/20 03:24:19;;;;;;;8.32;5.22;;;;;;;;;;5051957;28;20780;-80
2022/07/20 03:26:45;;;;;;;6.68;5.50;;;;;;;;;;5051848;28;20382;-80
2022/07/20 03:29:11;;;;;;;5.75;5.18;;;;;;;;;;5052136;28;20378;-80
2022/07/20 03:31:37;;;;;;;7.20;5.35;;;;;;;;;;5051927;28;20473;-80
2022/07/20 03:34:03;;;;;;;6.70;5.50;;;;;;;;;;5040377;28;20750;-80
2022/07/20 03:36:29;;;;;;;6.45;5.57;;;;;;;;;;5051908;28;20374;-80
2022/07/20 03:38:55;;;;;;;6.07;5.47;;;;;;;;;;5051817;28;20416;-80
2022/07/20 03:41:21;;;;;;;6.20;5.70;;;;;;;;;;5051904;28;20850;-80
2022/07/20 03:43:48;;;;;;;6.03;5.50;;;;;;;;;;5052081;28;20461;-80
2022/07/20 03:46:17;;;;;;;6.30;5.57;;;;;;;;;;5043040;28;20916;-80
2022/07/20 03:48:43;;;;;;;5.70;5.13;;;;;;;;;;5051940;28;20739;-80
2022/07/20 03:51:09;;;;;;;6.55;5.45;;;;;;;;;;5045189;28;20717;-80
2022/07/20 03:53:35;;;;;;;6.55;5.47;;;;;;;;;;5046391;28;20439;-80
2022/07/20 03:56:01;;;;;;;6.15;5.43;;;;;;;;;;5055670;28;20392;-80
2022/07/20 03:58:27;;;;;;;6.18;5.50;;;;;;;;;;5055677;28;20870;-80
2022/07/20 04:00:53;;;;;;;6.00;5.50;;;;;;;;;;5055641;28;20381;-80
2022/07/20 04:03:19;;;;;;;6.40;5.80;;;;;;;;;;5055478;28;20803;-80
2022/07/20 04:05:45;;;;;;;6.47;5.70;;;;;;;;;;5037544;28;20424;-80
2022/07/20 04:08:11;;;;;;;7.47;6.00;;;;;;;;;;5055552;28;20447;-80
2022/07/20 04:10:37;;;;;;;6.47;5.87;;;;;;;;;;5053992;28;20481;-80
2022/07/20 04:13:04;;;;;;;8.50;5.75;;;;;;;;;;5054603;28;20381;-80
2022/07/20 04:15:30;;;;;;;7.63;5.68;;;;;;;;;;5050510;28;20404;-80
2022/07/20 04:17:56;;;;;;;5.88;5.30;;;;;;;;;;5053410;28;20420;-80
2022/07/20 04:20:22;;;;;;;6.18;5.65;;;;;;;;;;5053293;28;20405;-80
2022/07/20 04:22:48;;;;;;;6.35;5.75;;;;;;;;;;5054790;28;20388;-80
2022/07/20 04:25:14;;;;;;;7.07;5.68;;;;;;;;;;5054398;28;20413;-80
2022/07/20 04:27:40;;;;;;;5.97;5.43;;;;;;;;;;5055095;28;20395;-80
2022/07/20 04:30:06;;;;;;;8.75;5.97;;;;;;;;;;5055102;28;20854;-80
2022/07/20 04:32:32;;;;;;;6.60;5.90;;;;;;;;;;5055379;28;20374;-80
2022/07/20 04:34:58;;;;;;;6.90;5.95;;;;;;;;;;5055079;28;20780;-80
2022/07/20 04:37:24;;;;;;;7.18;5.22;;;;;;;;;;5054562;28;20389;-80
2022/07/20 04:39:50;;;;;;;8.00;5.70;;;;;;;;;;5054934;28;20431;-80
2022/07/20 04:42:16;;;;;;;8.48;5.93;;;;;;;;;;5055025;28;20384;-80
2022/07/20 04:44:43;;;;;;;6.60;5.82;;;;;;;;;;5050066;28;20498;-80
2022/07/20 04:47:09;;;;;;;5.80;5.30;;;;;;;;;;5047299;28;20390;-80
2022/07/20 04:49:35;;;;;;;6.80;5.90;;;;;;;;;;5054774;28;20419;-80
2022/07/20 04:52:01;;;;;;;9.23;6.40;;;;;;;;;;5054371;28;20392;-80
2022/07/20 04:54:27;;;;;;;8.02;6.22;;;;;;;;;;5054528;28;20749;-80
2022/07/20 04:56:53;;;;;;;6.53;5.90;;;;;;;;;;5054722;28;20788;-80
2022/07/20 04:59:19;;;;;;;6.40;5.90;;;;;;;;;;5054714;28;20743;-80
2022/07/20 05:01:45;;;;;;;7.93;6.22;;;;;;;;;;5054419;28;20413;-80
2022/07/20 05:04:11;;;;;;;6.60;5.88;;;;;;;;;;5054458;28;20393;-80
2022/07/20 05:06:37;;;;;;;8.50;6.55;;;;;;;;;;5053777;28;20431;-80
2022/07/20 05:09:06;;;;;;;11.02;6.47;;;;;;;;;;5054430;28;20377;-80
2022/07/20 05:11:32;;;;;;;7.72;6.20;;;;;;;;;;5054442;28;20862;-80
2022/07/20 05:13:58;;;;;;;6.93;6.28;;;;;;;;;;5054374;28;20389;-80
2022/07/20 05:16:25;;;;;;;9.15;6.55;;;;;;;;;;5050855;28;20436;-81
2022/07/20 05:18:51;;;;;;;7.07;6.38;;;;;;;;;;5050186;28;21067;-80
2022/07/20 05:21:17;;;;;;;10.23;6.70;;;;;;;;;;5053448;28;20468;-80
2022/07/20 05:23:42;;;;;;;9.13;6.80;;;;;;;;;;5053728;28;20389;-81
2022/07/20 05:26:09;;;;;;;9.87;6.40;;;;;;;;;;5053973;28;20894;-81
2022/07/20 05:28:35;;;;;;;8.38;6.50;;;;;;;;;;5038120;28;20395;-82
2022/07/20 05:31:01;;;;;;;7.15;6.18;;;;;;;;;;5050492;28;20381;-80
2022/07/20 05:33:27;;;;;;;6.80;6.13;;;;;;;;;;5041056;28;20378;-80
2022/07/20 05:35:53;;;;;;;7.35;6.13;;;;;;;;;;5040786;28;20477;-80
2022/07/20 05:38:19;;;;;;;6.72;5.90;;;;;;;;;;5052359;28;20428;-80
2022/07/20 05:40:46;;;;;;;7.28;6.15;;;;;;;;;;5053024;28;20437;-80
2022/07/20 05:43:13;;;;;;;6.70;6.05;;;;;;;;;;5053742;28;20420;-80
2022/07/20 05:45:39;;;;;;;7.13;6.07;;;;;;;;;;5044816;28;20411;-79
2022/07/20 05:48:06;;;;;;;6.25;5.75;;;;;;;;;;5053958;28;20431;-82
2022/07/20 05:50:32;;;;;;;7.40;6.45;;;;;;;;;;5053640;28;20389;-82
2022/07/20 05:52:58;;;;;;;6.47;5.97;;;;;;;;;;5053590;28;20464;-82
2022/07/20 05:55:24;;;;;;;6.10;5.50;;;;;;;;;;5053563;28;20412;-82
2022/07/20 05:57:50;;;;;;;8.57;6.77;;;;;;;;;;5053207;28;20793;-82
2022/07/20 06:00:16;;;;;;;7.37;6.33;;;;;;;;;;5053437;28;20381;-82
2022/07/20 06:02:42;;;;;;;6.88;6.28;;;;;;;;;;5053117;28;20412;-82
2022/07/20 06:05:09;;;;;;;7.53;6.68;;;;;;;;;;5049908;28;20412;-82
2022/07/20 06:07:35;;;;;;;6.87;6.27;;;;;;;;;;5042721;28;20944;-82
2022/07/20 06:10:01;;;;;;;6.55;5.97;;;;;;;;;;5051473;28;20899;-82
2022/07/20 06:12:27;;;;;;;7.80;6.45;;;;;;;;;;5053159;28;20374;-82
2022/07/20 06:14:53;;;;;;;6.80;6.20;;;;;;;;;;5053041;28;20438;-82
2022/07/20 06:17:19;;;;;;;6.85;6.18;;;;;;;;;;5052933;28;20723;-80
2022/07/20 06:19:45;;;;;;;6.80;6.20;;;;;;;;;;5036519;28;20474;-80
2022/07/20 06:22:11;;;;;;;7.15;6.22;;;;;;;;;;5046361;28;20391;-80
2022/07/20 06:24:37;;;;;;;6.78;6.15;;;;;;;;;;5035230;28;20774;-81
2022/07/20 06:27:03;;;;;;;6.75;6.18;;;;;;;;;;5050504;28;20405;-80
2022/07/20 06:29:29;;;;;;;5.97;5.45;;;;;;;;;;5046501;28;20862;-80
2022/07/20 06:31:55;;;;;;;7.80;6.32;;;;;;;;;;5052715;28;20420;-80
2022/07/20 06:34:21;;;;;;;6.82;5.65;;;;;;;;;;5053201;28;20381;-80
2022/07/20 06:36:47;;;;;;;7.13;6.30;;;;;;;;;;5052599;28;20738;-80
2022/07/20 06:39:13;;;;;;;8.88;6.50;;;;;;;;;;5052749;28;20456;-81
2022/07/20 06:41:39;;;;;;;7.85;6.68;;;;;;;;;;5052452;28;20385;-81
2022/07/20 06:44:05;;;;;;;8.60;6.43;;;;;;;;;;5043653;28;20381;-81
2022/07/20 06:46:31;;;;;;;9.25;6.70;;;;;;;;;;5037190;28;20436;-81
2022/07/20 06:48:57;;;;;;;8.50;6.72;;;;;;;;;;5049431;28;20421;-81
2022/07/20 06:51:24;;;;;;;7.20;6.20;;;;;;;;;;5052497;28;20467;-81
2022/07/20 06:53:50;;;;;;;6.50;5.82;;;;;;;;;;5052398;28;20462;-82
2022/07/20 06:56:16;;;;;;;6.53;6.03;;;;;;;;;;5052337;28;20385;-80
2022/07/20 06:58:42;;;;;;;7.37;6.10;;;;;;;;;;5041415;28;20890;-82
2022/07/20 07:01:08;;;;;;;8.43;6.30;;;;;;;;;;5035691;28;20391;-80
2022/07/20 07:03:34;;;;;;;7.10;6.20;;;;;;;;;;5035387;28;20398;-81
2022/07/20 07:06:00;;;;;;;7.17;6.57;;;;;;;;;;5031830;28;20411;-80
2022/07/20 07:08:26;;;;;;;8.40;6.57;;;;;;;;;;5035853;28;20875;-80
2022/07/20 07:10:52;;;;;;;10.30;6.37;;;;;;;;;;5032075;28;20427;-80
2022/07/20 07:13:18;;;;;;;8.20;6.63;;;;;;;;;;5034415;28;20416;-81
2022/07/20 07:15:44;;;;;;;8.80;6.67;;;;;;;;;;5041416;28;20734;-81
2022/07/20 07:18:10;;;;;;;8.53;6.87;;;;;;;;;;5037853;28;20405;-80
2022/07/20 07:20:36;;;;;;;7.38;6.60;;;;;;;;;;5052100;28;20734;-81
2022/07/20 07:23:02;;;;;;;8.48;6.72;;;;;;;;;;5051272;28;20377;-81
2022/07/20 07:25:28;;;;;;;18.23;7.90;;;;;;;;;;5051482;28;20397;-81
2022/07/20 07:27:54;;;;;;;13.07;9.02;;;;;;;;;;5051468;28;20414;-81
2022/07/20 07:30:20;;;;;;;54.33;10.00;;;;;;;;;;5051943;28;20827;-80
2022/07/20 07:32:46;;;;;;;18.80;7.97;;;;;;;;;;5051978;28;20507;-81
2022/07/20 07:35:12;;;;;;;9.27;6.47;;;;;;;;;;5051906;28;20809;-81
2022/07/20 07:37:38;;;;;;;7.07;6.38;;;;;;;;;;5052034;28;20458;-81
2022/07/20 07:40:05;;;;;;;19.17;6.75;;;;;;;;;;5051892;28;20436;-80
2022/07/20 07:42:31;;;;;;;8.67;7.30;;;;;;;;;;5034172;28;20871;-81
2022/07/20 07:44:59;;;;;;;6.50;5.90;;;;;;;;;;5041772;28;20515;-81
2022/07/20 07:47:25;;;;;;;6.57;5.90;;;;;;;;;;5049967;28;20398;-81
2022/07/20 07:49:51;;;;;;;7.53;6.27;;;;;;;;;;5054315;28;20378;-80
2022/07/20 07:52:17;;;;;;;10.10;6.00;;;;;;;;;;5053074;28;20381;-81
2022/07/20 07:54:43;;;;;;;6.87;6.10;;;;;;;;;;5051792;28;20381;-81
2022/07/20 07:57:09;;;;;;;6.33;5.63;;;;;;;;;;5051637;28;20400;-81
2022/07/20 07:59:35;;;;;;;8.90;6.27;;;;;;;;;;5045023;28;20448;-81
2022/07/20 08:02:01;;;;;;;8.03;5.63;;;;;;;;;;5051641;28;20464;-81
2022/07/20 08:04:27;;;;;;;8.63;6.03;;;;;;;;;;5051145;28;20369;-81
2022/07/20 08:06:53;;;;;;;6.65;6.03;;;;;;;;;;5051636;28;20910;-81
2022/07/20 08:09:19;;;;;;;6.40;5.80;;;;;;;;;;5038843;28;20441;-81
2022/07/20 08:11:46;;;;;;;6.20;5.68;;;;;;;;;;5044859;28;20375;-81
2022/07/20 08:14:12;;;;;;;7.30;5.70;;;;;;;;;;5031709;28;20387;-80
2022/07/20 08:16:38;;;;;;;6.28;5.68;;;;;;;;;;5048288;28;20381;-81
2022/07/20 08:19:04;;;;;;;8.27;5.67;;;;;;;;;;5034022;28;20742;-81
2022/07/20 08:21:30;;;;;;;6.75;6.03;;;;;;;;;;5051425;28;20389;-81
2022/07/20 08:23:56;;;;;;;6.57;5.68;;;;;;;;;;5051501;28;20382;-81
2022/07/20 08:26:22;;;;;;;6.90;5.60;;;;;;;;;;5051448;28;20402;-81
2022/07/20 08:28:48;;;;;;;6.13;5.30;;;;;;;;;;5033253;28;20389;-81
2022/07/20 08:31:14;;;;;;;9.02;5.40;;;;;;;;;;5033300;28;20803;-81
2022/07/20 08:33:40;;;;;;;6.63;5.60;;;;;;;;;;5036457;28;20389;-81
2022/07/20 08:36:06;;;;;;;7.82;5.32;;;;;;;;;;5051113;28;20389;-81
2022/07/20 08:38:32;;;;;;;6.43;5.60;;;;;;;;;;5051327;28;20741;-81
2022/07/20 08:40:58;;;;;;;6.88;5.15;;;;;;;;;;5053859;28;20443;-81
2022/07/20 08:43:25;;;;;;;6.97;5.75;;;;;;;;;;5051617;28;20465;-81
2022/07/20 08:45:51;;;;;;;7.03;5.10;;;;;;;;;;5040640;28;20906;-81
2022/07/20 08:48:18;;;;;;;11.15;5.80;;;;;;;;;;5054857;28;20386;-82
2022/07/20 08:50:44;;;;;;;9.48;5.57;;;;;;;;;;5051172;28;20484;-81
2022/07/20 08:53:10;;;;;;;5.38;4.80;;;;;;;;;;5044328;28;20818;-82
2022/07/20 08:55:36;;;;;;;8.30;5.35;;;;;;;;;;5039347;28;20479;-82
2022/07/20 08:58:02;;;;;;;8.63;5.47;;;;;;;;;;5054662;28;20424;-82
2022/07/20 09:00:29;;;;;;;7.53;5.30;;;;;;;;;;5051208;28;20450;-82
2022/07/20 09:02:56;;;;;;;7.72;5.35;;;;;;;;;;5036122;28;20410;-82
2022/07/20 09:05:23;;;;;;;7.03;5.55;;;;;;;;;;5053986;28;20929;-82
2022/07/20 09:07:50;;;;;;;9.13;5.70;;;;;;;;;;5054353;28;20469;-82
2022/07/20 09:10:18;;;;;;;9.73;5.60;;;;;;;;;;5045318;28;20391;-82
2022/07/20 09:12:53;;;;;;;7.57;5.93;;;;;;;;;;5054417;28;20382;-82
2022/07/20 09:15:47;;;;;;;6.82;5.72;;;;;;;;;;5054280;28;20858;-81
2022/07/20 09:18:14;;;;;;;17.75;6.68;;;;;;;;;;5043819;28;20399;-81
2022/07/20 09:20:42;;;;;;;11.27;5.97;;;;;;;;;;5054464;28;20463;-81
2022/07/20 09:23:10;;;;;;;6.13;5.53;;;;;;;;;;5054195;28;20746;-82
2022/07/20 09:25:36;;;;;;;7.70;5.65;;;;;;;;;;5040621;28;20405;-82
2022/07/20 09:28:02;;;;;;;8.43;5.93;;;;;;;;;;5054133;28;20880;-82
2022/07/20 09:30:28;;;;;;;7.47;4.83;;;;;;;;;;5053844;28;20485;-83
2022/07/20 09:33:01;;;;;;;5.72;4.53;;;;;;;;;;5045230;28;20383;-83
2022/07/20 09:35:29;;;;;;;4.67;4.27;;;;;;;;;;5051606;28;20381;-81
2022/07/20 09:37:55;;;;;;;7.88;4.53;;;;;;;;;;5053855;28;20389;-81
2022/07/20 09:40:21;;;;;;;7.63;4.45;;;;;;;;;;5053778;28;20393;-81
2022/07/20 09:42:47;;;;;;;10.43;6.82;;;;;;;;;;5053896;28;20381;-83
2022/07/20 09:45:27;;;;;;;7.90;5.63;;;;;;;;;;5038897;28;20419;-84
2022/07/20 09:48:07;;;;;;;7.88;5.57;;;;;;;;;;5046022;28;20386;-83
2022/07/20 09:50:35;;;;;;;7.85;5.72;;;;;;;;;;5048514;28;20408;-83
2022/07/20 09:53:01;;;;;;;9.15;4.80;;;;;;;;;;5041849;28;20393;-83
2022/07/20 09:55:27;;;;;;;7.22;4.63;;;;;;;;;;5041010;28;20470;-83
2022/07/20 09:57:54;;;;;;;5.63;4.40;;;;;;;;;;5053405;28;20456;-83
2022/07/20 10:00:21;;;;;;;7.43;4.60;;;;;;;;;;5053561;28;20413;-83
2022/07/20 10:02:49;;;;;;;8.68;4.90;;;;;;;;;;5053256;28;20396;-83
2022/07/20 10:05:17;;;;;;;5.35;4.85;;;;;;;;;;5053323;28;20398;-83
2022/07/20 10:07:44;;;;;;;4.97;4.50;;;;;;;;;;5053253;28;20385;-83
2022/07/20 10:10:10;;;;;;;6.22;4.60;;;;;;;;;;5049870;28;20376;-83
2022/07/20 10:12:36;;;;;;;7.22;5.20;;;;;;;;;;5053215;28;20462;-83
2022/07/20 10:15:03;;;;;;;6.70;4.78;;;;;;;;;;5053204;28;20789;-83
2022/07/20 10:17:31;;;;;;;4.80;4.40;;;;;;;;;;5053134;28;20743;-83
2022/07/20 10:19:57;;;;;;;8.00;4.55;;;;;;;;;;5053107;28;20386;-83
2022/07/20 10:22:23;;;;;;;5.80;4.50;;;;;;;;;;5053084;28;20727;-83
2022/07/20 10:25:25;;;;;;;6.83;4.40;;;;;;;;;;5052918;28;20405;-83
2022/07/20 10:27:51;;;;;;;7.03;4.50;;;;;;;;;;5011562;28;20398;-85
2022/07/20 10:30:18;;;;;;;6.13;4.22;;;;;;;;;;5050078;28;20370;-83
2022/07/20 10:32:57;;;;;;;5.55;4.20;;;;;;;;;;5052877;28;20474;-83
2022/07/20 10:35:28;;;;;;;6.07;4.10;;;;;;;;;;5052561;28;20378;-83
2022/07/20 10:37:56;;;;;;;8.40;4.10;;;;;;;;;;5052727;28;20378;-82
2022/07/20 10:40:23;;;;;;;15.98;4.25;;;;;;;;;;5052685;28;20389;-83
2022/07/20 10:42:51;;;;;;;5.72;3.95;;;;;;;;;;5052702;28;20381;-83
2022/07/20 10:45:17;;;;;;;6.93;3.95;;;;;;;;;;5043458;28;20417;-84
2022/07/20 10:47:46;;;;;;;8.80;3.85;;;;;;;;;;5049696;28;20370;-82
2022/07/20 10:50:18;;;;;;;9.13;4.00;;;;;;;;;;5052417;28;20413;-83
2022/07/20 10:52:46;;;;;;;5.28;3.67;;;;;;;;;;5039967;28;20805;-83
2022/07/20 10:55:32;;;;;;;11.13;4.03;;;;;;;;;;5035994;28;20421;-83
2022/07/20 10:57:58;;;;;;;9.32;4.10;;;;;;;;;;5046450;28;20432;-83
2022/07/20 11:00:29;;;;;;;8.38;3.92;;;;;;;;;;5034166;28;20395;-83
2022/07/20 11:02:56;;;;;;;7.35;3.65;;;;;;;;;;5041189;28;20406;-83
2022/07/20 11:05:22;;;;;;;5.78;3.90;;;;;;;;;;5048108;28;20411;-82
2022/07/20 11:07:49;;;;;;;6.38;4.00;;;;;;;;;;5044591;28;20386;-83
2022/07/20 11:10:19;;;;;;;11.15;4.50;;;;;;;;;;5049666;28;20385;-83
2022/07/20 11:12:53;;;;;;;5.93;4.03;;;;;;;;;;5050983;28;20373;-83
2022/07/20 11:15:19;;;;;;;3.97;3.42;;;;;;;;;;5048774;28;20388;-83
2022/07/20 11:17:45;;;;;;;13.68;4.40;;;;;;;;;;5050753;28;20438;-83
2022/07/20 11:20:15;;;;;;;5.65;3.97;;;;;;;;;;5051233;28;20802;-84
2022/07/20 11:22:41;;;;;;;8.90;3.90;;;;;;;;;;5051570;28;20386;-83
2022/07/20 11:25:07;;;;;;;5.13;3.90;;;;;;;;;;5048382;28;20409;-83
2022/07/20 11:27:33;;;;;;;10.57;3.83;;;;;;;;;;5051612;28;20464;-83
2022/07/20 11:29:59;;;;;;;23.42;4.60;;;;;;;;;;5052192;28;20409;-83
2022/07/20 11:32:27;;;;;;;16.10;4.32;;;;;;;;;;5051535;28;20901;-84
2022/07/20 11:34:53;;;;;;;6.43;3.70;;;;;;;;;;5051955;28;20381;-83
2022/07/20 11:37:20;;;;;;;7.10;3.90;;;;;;;;;;5051458;28;20468;-82
2022/07/20 11:39:47;;;;;;;3.88;3.50;;;;;;;;;;5051939;28;20385;-84
2022/07/20 11:42:14;;;;;;;4.50;3.85;;;;;;;;;;5037888;28;20418;-83
2022/07/20 11:44:41;;;;;;;4.67;3.70;;;;;;;;;;5047300;28;20421;-83
2022/07/20 11:47:07;;;;;;;4.50;3.88;;;;;;;;;;5047424;28;20934;-84
2022/07/20 11:49:33;;;;;;;6.65;4.32;;;;;;;;;;5051834;28;20377;-84
2022/07/20 11:52:01;;;;;;;4.30;3.87;;;;;;;;;;5051908;28;20385;-84
2022/07/20 11:54:29;;;;;;;4.40;3.55;;;;;;;;;;5051807;28;20370;-85
2022/07/20 11:56:55;;;;;;;4.40;3.80;;;;;;;;;;5051714;28;20956;-84
2022/07/20 11:59:22;;;;;;;4.38;4.00;;;;;;;;;;5051139;28;20410;-84
2022/07/20 12:01:50;;;;;;;4.40;4.00;;;;;;;;;;5050988;28;20384;-83
2022/07/20 12:04:19;;;;;;;4.80;4.07;;;;;;;;;;5052061;28;20491;-84
2022/07/20 12:06:46;;;;;;;5.40;3.78;;;;;;;;;;5051126;28;20417;-84
2022/07/20 12:09:19;;;;;;;6.13;3.70;;;;;;;;;;5051655;28;20385;-83
2022/07/20 12:12:06;;;;;;;4.63;4.22;;;;;;;;;;5050933;28;20942;-83
2022/07/20 12:14:39;;;;;;;4.90;4.18;;;;;;;;;;5052067;28;20373;-84
2022/07/20 12:17:19;;;;;;;6.65;4.35;;;;;;;;;;5039489;28;20365;-84
2022/07/20 12:19:46;;;;;;;5.07;4.10;;;;;;;;;;5049737;28;20374;-85
2022/07/20 12:22:18;;;;;;;4.45;4.13;;;;;;;;;;5055308;28;20370;-83
2022/07/20 12:24:51;;;;;;;4.15;3.85;;;;;;;;;;5055080;28;20904;-84
2022/07/20 12:27:17;;;;;;;4.88;3.85;;;;;;;;;;5054438;28;20793;-84
2022/07/20 12:29:43;;;;;;;4.93;3.70;;;;;;;;;;5048183;28;20962;-84
2022/07/20 12:32:09;;;;;;;5.03;4.18;;;;;;;;;;5055094;28;20373;-83
2022/07/20 12:34:54;;;;;;;4.43;3.50;;;;;;;;;;5054739;28;20381;-83
2022/07/20 12:37:21;;;;;;;4.22;3.88;;;;;;;;;;5053744;28;20750;-84
2022/07/20 12:39:53;;;;;;;4.30;3.90;;;;;;;;;;5050827;28;21173;-84
2022/07/20 12:42:19;;;;;;;4.38;4.07;;;;;;;;;;5052580;28;20412;-84
2022/07/20 12:44:49;;;;;;;4.45;4.00;;;;;;;;;;5047409;28;20399;-83
2022/07/20 12:47:16;;;;;;;4.38;3.97;;;;;;;;;;5048497;28;20394;-84
2022/07/20 12:49:42;;;;;;;4.45;4.07;;;;;;;;;;5052811;28;20493;-84
2022/07/20 12:52:09;;;;;;;5.50;3.83;;;;;;;;;;5052663;28;20751;-85
2022/07/20 12:54:35;;;;;;;4.53;4.13;;;;;;;;;;5054414;28;20381;-84
2022/07/20 12:57:01;;;;;;;4.32;3.92;;;;;;;;;;5054168;28;20389;-84
2022/07/20 12:59:27;;;;;;;5.13;4.63;;;;;;;;;;5053616;28;20385;-84
2022/07/20 13:01:53;;;;;;;4.72;4.32;;;;;;;;;;5054028;28;20420;-84
2022/07/20 13:04:20;;;;;;;4.50;4.20;;;;;;;;;;5054208;28;21004;-85
2022/07/20 13:06:47;;;;;;;4.65;4.22;;;;;;;;;;5053886;28;20437;-85
2022/07/20 13:09:16;;;;;;;4.53;4.10;;;;;;;;;;5050444;28;20435;-86
2022/07/20 13:11:42;;;;;;;4.10;3.80;;;;;;;;;;5053534;28;20468;-85
2022/07/20 13:14:09;;;;;;;4.30;3.90;;;;;;;;;;5053626;28;20381;-86
2022/07/20 13:16:35;;;;;;;4.50;4.15;;;;;;;;;;5053440;28;20377;-85
2022/07/20 13:19:01;;;;;;;4.60;4.20;;;;;;;;;;5035703;28;20447;-86
2022/07/20 13:21:27;;;;;;;4.73;4.33;;;;;;;;;;5053062;28;20385;-86
2022/07/20 13:23:53;;;;;;;5.25;4.75;;;;;;;;;;5054212;28;20862;-85
2022/07/20 13:26:19;;;;;;;6.25;5.65;;;;;;;;;;5053343;28;20401;-84
2022/07/20 13:28:45;;;;;;;6.35;5.25;;;;;;;;;;5054075;28;20380;-84
2022/07/20 13:31:11;;;;;;;5.40;4.93;;;;;;;;;;5053678;28;20851;-84
2022/07/20 13:33:37;;;;;;;6.20;4.90;;;;;;;;;;5053686;28;20878;-84
2022/07/20 13:36:04;;;;;;;6.87;4.57;;;;;;;;;;5053058;28;20754;-85
2022/07/20 13:38:30;;;;;;;5.10;4.60;;;;;;;;;;5053901;28;20404;-83
2022/07/20 13:40:56;;;;;;;5.82;4.78;;;;;;;;;;5053538;28;20389;-84
2022/07/20 13:43:23;;;;;;;4.80;4.38;;;;;;;;;;5053758;28;20381;-83
2022/07/20 13:45:49;;;;;;;7.63;4.22;;;;;;;;;;5050717;28;20413;-84
2022/07/20 13:48:15;;;;;;;5.35;4.30;;;;;;;;;;5053862;28;20406;-84
2022/07/20 13:50:41;;;;;;;8.23;4.78;;;;;;;;;;5052697;28;20431;-84
2022/07/20 13:53:07;;;;;;;5.20;4.53;;;;;;;;;;5053073;28;20738;-84
2022/07/20 13:55:33;;;;;;;6.80;4.60;;;;;;;;;;5052706;28;20392;-84
2022/07/20 13:57:59;;;;;;;4.45;4.13;;;;;;;;;;5051829;28;20389;-84
2022/07/20 14:00:25;;;;;;;4.25;3.85;;;;;;;;;;5053367;28;20893;-84
2022/07/20 14:02:51;;;;;;;6.70;3.92;;;;;;;;;;5043015;28;20456;-85
2022/07/20 14:05:17;;;;;;;5.00;4.30;;;;;;;;;;5053356;28;20806;-84
2022/07/20 14:07:43;;;;;;;4.28;3.95;;;;;;;;;;5053292;28;20374;-84
2022/07/20 14:10:10;;;;;;;4.00;3.60;;;;;;;;;;5052947;28;20409;-85
2022/07/20 14:12:37;;;;;;;4.35;3.70;;;;;;;;;;5053291;28;20527;-85
2022/07/20 14:15:04;;;;;;;3.70;3.40;;;;;;;;;;5053193;28;20378;-84
2022/07/20 14:17:30;;;;;;;4.60;3.73;;;;;;;;;;5052815;28;20415;-83
2022/07/20 14:19:56;;;;;;;5.20;4.80;;;;;;;;;;5047708;28;20401;-84
2022/07/20 14:22:22;;;;;;;7.10;6.50;;;;;;;;;;5046061;28;20399;-85
2022/07/20 14:24:48;;;;;;;7.30;6.80;;;;;;;;;;5047565;28;20403;-85
2022/07/20 14:27:14;;;;;;;7.18;6.68;;;;;;;;;;5050725;28;20384;-85
2022/07/20 14:29:40;;;;;;;8.13;7.32;;;;;;;;;;5052965;28;20885;-85
2022/07/20 14:32:07;;;;;;;7.50;6.88;;;;;;;;;;5052855;28;20377;-85
2022/07/20 14:34:33;;;;;;;8.38;7.43;;;;;;;;;;5050334;28;20405;-85
2022/07/20 14:36:59;;;;;;;7.45;6.85;;;;;;;;;;5051682;28;20401;-85
2022/07/20 14:39:25;;;;;;;7.45;6.85;;;;;;;;;;5042477;28;20447;-85
2022/07/20 14:41:51;;;;;;;7.67;6.87;;;;;;;;;;5048816;28;20393;-84
2022/07/20 14:44:17;;;;;;;8.15;7.40;;;;;;;;;;5051511;28;20457;-85
2022/07/20 14:46:43;;;;;;;7.60;7.00;;;;;;;;;;5048261;28;20511;-85